YSWG/WGA METAR and TAF weather

Enter ICAO airport designator
Station Type Date Time Source
YSWG METAR 2021/01/27 14:00 UTC NOAA

YSWG 271400Z AUTO 09016KT 9999 // NCD 21/12 Q1013


Station Type Date Time Source
YSWG Decoded METAR 2021/01/27 14:00 UTC NOAA

Wagga Airport, Australia (YSWG) 35-09S 147-27E 213M
Jan 27, 2021 - 09:00 AM EST / 2021.01.27 1400 UTC
Wind: from the E (090 degrees) at 18 MPH (16 KT):0
Visibility: greater than 7 mile(s):0
Temperature: 69 F (21 C)
Dew Point: 53 F (12 C)
Relative Humidity: 56%
Pressure (altimeter): 29.91 in. Hg (1013 hPa)
ob: YSWG 271400Z AUTO 09016KT 9999 // NCD 21/12 Q1013
cycle: 14

Station Type Date Time Source
YSWG TAF 2018/05/25 18:03 UTC NOAA

TAF YSWG 251649Z 2518/2608 07008KT CAVOK

Example: see airport list